createdAt,value
2022-09-27T00:01:55.945Z,59.72
2022-09-27T00:06:57.319Z,59.49
2022-09-27T00:11:58.894Z,59.18
2022-09-27T00:17:00.261Z,59.29
2022-09-27T00:22:01.592Z,58.67
2022-09-27T00:27:02.905Z,58.79
2022-09-27T00:32:04.335Z,58.41
2022-09-27T00:37:06.110Z,58.06
2022-09-27T00:42:11.614Z,58.20
2022-09-27T00:47:16.353Z,58.77
2022-09-27T00:52:38.068Z,58.74
2022-09-27T00:57:39.930Z,58.51
2022-09-27T01:02:44.046Z,58.89
2022-09-27T01:07:45.472Z,59.03
2022-09-27T01:12:54.755Z,59.36
2022-09-27T01:18:08.816Z,59.29
2022-09-27T01:23:28.943Z,59.72
2022-09-27T01:28:33.424Z,59.94
2022-09-27T01:33:43.229Z,59.67
2022-09-27T01:38:47.397Z,60.10
2022-09-27T01:44:06.578Z,59.88
2022-09-27T01:49:17.201Z,59.85
2022-09-27T01:54:21.849Z,59.78
2022-09-27T01:59:47.280Z,59.90
2022-09-27T02:05:11.526Z,59.44
2022-09-27T02:10:17.721Z,59.40
2022-09-27T02:15:26.864Z,59.00
2022-09-27T02:20:54.759Z,59.01
2022-09-27T02:25:57.813Z,58.87
2022-09-27T02:30:59.324Z,59.23
2022-09-27T02:36:05.822Z,59.50
2022-09-27T02:41:17.476Z,59.57
2022-09-27T02:46:31.122Z,59.71
2022-09-27T02:51:51.453Z,59.37
2022-09-27T02:56:58.998Z,59.57
2022-09-27T03:02:38.365Z,59.58
2022-09-27T03:08:07.649Z,59.51
2022-09-27T03:13:09.166Z,59.91
2022-09-27T03:18:11.047Z,59.80
2022-09-27T03:23:50.317Z,60.12
2022-09-27T03:28:51.786Z,60.17
2022-09-27T03:33:53.183Z,60.42
2022-09-27T03:38:54.997Z,60.58
2022-09-27T03:43:57.804Z,60.61
2022-09-27T03:48:59.966Z,60.86
2022-09-27T03:54:01.293Z,61.05
2022-09-27T03:59:03.545Z,61.64
2022-09-27T04:04:14.825Z,61.05
2022-09-27T04:09:16.397Z,61.45
2022-09-27T04:14:34.458Z,61.63
2022-09-27T04:20:03.239Z,61.54
2022-09-27T04:25:05.087Z,61.64
2022-09-27T04:30:12.684Z,61.82
2022-09-27T04:35:58.487Z,62.12
2022-09-27T04:41:01.887Z,62.06
2022-09-27T04:46:07.251Z,61.93
2022-09-27T04:51:09.537Z,61.97
2022-09-27T04:56:11.271Z,62.23
2022-09-27T05:01:12.995Z,61.91
2022-09-27T05:06:32.915Z,62.16
2022-09-27T05:11:40.667Z,62.07
2022-09-27T05:16:50.890Z,62.24
2022-09-27T05:22:11.441Z,62.53
2022-09-27T05:27:18.371Z,62.35
2022-09-27T05:32:19.781Z,62.23
2022-09-27T05:37:26.574Z,62.38
2022-09-27T05:42:28.033Z,62.36
2022-09-27T05:47:29.358Z,62.56
2022-09-27T05:52:30.753Z,62.73
2022-09-27T05:57:34.768Z,63.16
2022-09-27T06:02:39.621Z,63.18
2022-09-27T06:07:49.684Z,62.98
2022-09-27T06:13:05.381Z,63.09
2022-09-27T06:18:16.037Z,63.17
2022-09-27T06:23:20.658Z,63.67
2022-09-27T06:28:23.700Z,63.63
2022-09-27T06:33:29.400Z,63.73
2022-09-27T06:38:33.463Z,63.55
2022-09-27T06:43:47.934Z,63.76
2022-09-27T06:49:07.706Z,63.68
2022-09-27T06:54:09.883Z,63.64
2022-09-27T06:59:30.546Z,63.69
2022-09-27T07:04:58.878Z,63.91
2022-09-27T07:10:12.820Z,63.95
2022-09-27T07:15:15.152Z,63.94
2022-09-27T07:20:17.357Z,63.99
2022-09-27T07:25:20.460Z,64.00
2022-09-27T07:30:22.269Z,63.96
2022-09-27T07:35:25.038Z,63.92
2022-09-27T07:40:26.730Z,63.99
2022-09-27T07:45:28.568Z,63.97
2022-09-27T07:50:41.972Z,63.84
2022-09-27T07:56:14.550Z,63.89
2022-09-27T08:01:16.202Z,63.61
2022-09-27T08:06:18.998Z,63.46
2022-09-27T08:11:21.766Z,63.36
2022-09-27T08:16:24.626Z,63.50
2022-09-27T08:21:44.721Z,63.38
2022-09-27T08:27:11.515Z,63.20
2022-09-27T08:32:28.719Z,63.10
2022-09-27T08:37:30.211Z,62.89
2022-09-27T08:42:39.517Z,62.87
2022-09-27T08:47:44.302Z,62.74
2022-09-27T08:52:48.246Z,62.69
2022-09-27T08:57:59.279Z,62.46
2022-09-27T09:03:02.433Z,62.13
2022-09-27T09:08:21.785Z,62.27
2022-09-27T09:13:40.470Z,63.04
2022-09-27T09:18:43.019Z,64.20
2022-09-27T09:24:14.893Z,64.43
2022-09-27T09:29:23.149Z,64.73
2022-09-27T09:34:40.709Z,64.04
2022-09-27T09:39:48.761Z,63.92
2022-09-27T09:45:26.454Z,63.87
2022-09-27T09:50:35.107Z,63.26
2022-09-27T09:55:38.511Z,62.97
2022-09-27T10:00:40.595Z,62.75
2022-09-27T10:05:43.568Z,63.01
2022-09-27T10:10:45.644Z,63.01
2022-09-27T10:16:17.025Z,62.24
2022-09-27T10:21:20.844Z,61.30
2022-09-27T10:26:22.620Z,61.05
2022-09-27T10:31:34.911Z,60.08
2022-09-27T10:36:45.748Z,59.47
2022-09-27T10:41:47.720Z,59.83
2022-09-27T10:47:10.131Z,60.56
2022-09-27T10:52:21.743Z,61.15
2022-09-27T10:57:24.691Z,61.55
2022-09-27T11:02:33.952Z,61.16
2022-09-27T11:07:52.749Z,61.03
2022-09-27T11:13:33.585Z,61.56
2022-09-27T11:18:55.300Z,61.79
2022-09-27T11:24:11.210Z,61.54
2022-09-27T11:29:22.205Z,62.20
2022-09-27T11:35:32.534Z,62.57
2022-09-27T11:40:34.662Z,63.41
2022-09-27T11:46:13.329Z,63.64
2022-09-27T11:51:22.560Z,63.74
2022-09-27T11:56:24.005Z,64.63
2022-09-27T12:01:25.440Z,64.14
2022-09-27T12:06:38.224Z,63.79
2022-09-27T12:12:04.835Z,64.22
2022-09-27T12:17:11.423Z,63.85
2022-09-27T12:22:15.573Z,65.31
2022-09-27T12:27:23.773Z,66.62
2022-09-27T12:32:28.066Z,67.08
2022-09-27T12:37:48.953Z,66.89
2022-09-27T12:42:59.661Z,67.16
2022-09-27T12:48:22.070Z,67.01
2022-09-27T12:53:29.097Z,67.05
2022-09-27T12:58:52.057Z,66.90
2022-09-27T13:04:23.148Z,67.38
2022-09-27T13:09:55.726Z,67.34
2022-09-27T13:15:13.790Z,67.54
2022-09-27T13:20:27.517Z,66.87
2022-09-27T13:25:50.604Z,65.52
2022-09-27T13:31:10.955Z,65.28
2022-09-27T13:36:16.155Z,64.09
2022-09-27T13:41:19.977Z,62.64
2022-09-27T13:46:31.180Z,61.82
2022-09-27T13:51:40.781Z,62.56
2022-09-27T13:56:47.190Z,63.09
2022-09-27T14:01:52.919Z,62.97
2022-09-27T14:07:01.658Z,63.24
2022-09-27T14:12:10.178Z,63.89
2022-09-27T14:17:13.480Z,63.94
2022-09-27T14:22:17.670Z,63.95
2022-09-27T14:27:37.460Z,64.53
2022-09-27T14:32:52.025Z,64.62
2022-09-27T14:38:15.751Z,64.55
2022-09-27T14:43:23.586Z,64.65
2022-09-27T14:48:32.332Z,64.52
2022-09-27T14:53:36.039Z,64.85
2022-09-27T14:58:47.008Z,65.11
2022-09-27T15:03:49.748Z,64.94
2022-09-27T15:08:51.422Z,64.68
2022-09-27T15:13:53.503Z,65.18
2022-09-27T15:19:03.426Z,65.19
2022-09-27T15:24:05.581Z,64.93
2022-09-27T15:29:16.746Z,64.95
2022-09-27T15:34:18.772Z,64.85
2022-09-27T15:39:26.474Z,64.78
2022-09-27T15:44:45.128Z,64.87
2022-09-27T15:49:46.541Z,64.10
2022-09-27T15:54:49.294Z,63.64
2022-09-27T15:59:50.595Z,63.38
2022-09-27T16:04:52.088Z,63.27
2022-09-27T16:09:55.461Z,63.36
2022-09-27T16:14:56.745Z,62.91
2022-09-27T16:19:58.095Z,62.11
2022-09-27T16:24:59.481Z,62.22
2022-09-27T16:30:01.079Z,63.20
2022-09-27T16:35:03.113Z,63.97
2022-09-27T16:40:05.443Z,64.47
2022-09-27T16:45:10.564Z,64.90
2022-09-27T16:50:32.432Z,65.29
2022-09-27T16:55:35.226Z,65.24
2022-09-27T17:00:36.663Z,65.62
2022-09-27T17:05:38.049Z,65.38
2022-09-27T17:10:43.841Z,65.45
2022-09-27T17:15:45.157Z,65.70
2022-09-27T17:20:46.517Z,65.97
2022-09-27T17:25:49.204Z,66.03
2022-09-27T17:30:52.885Z,65.86
2022-09-27T17:36:01.995Z,66.13
2022-09-27T17:41:04.708Z,66.02
2022-09-27T17:46:07.289Z,66.32
2022-09-27T17:51:11.990Z,66.16
2022-09-27T17:56:14.523Z,66.26
2022-09-27T18:01:16.604Z,66.76
2022-09-27T18:06:17.920Z,66.85
2022-09-27T18:11:27.561Z,66.91
2022-09-27T18:16:32.039Z,66.88
2022-09-27T18:21:33.892Z,66.74
2022-09-27T18:26:39.115Z,66.64
2022-09-27T18:31:43.717Z,66.51
2022-09-27T18:36:48.629Z,66.34
2022-09-27T18:41:49.957Z,66.33
2022-09-27T18:46:51.328Z,66.69
2022-09-27T18:51:52.797Z,66.75
2022-09-27T18:56:54.187Z,66.58
2022-09-27T19:01:56.358Z,66.82
2022-09-27T19:06:59.578Z,66.87
2022-09-27T19:12:01.834Z,66.63
2022-09-27T19:17:04.572Z,66.43
2022-09-27T19:22:05.977Z,66.16
2022-09-27T19:27:07.904Z,66.32
2022-09-27T19:32:11.179Z,66.13
2022-09-27T19:37:12.573Z,65.86
2022-09-27T19:42:14.228Z,65.84
2022-09-27T19:47:16.752Z,65.57
2022-09-27T19:52:19.402Z,65.76
2022-09-27T19:57:20.767Z,66.00
2022-09-27T20:02:22.275Z,66.03
2022-09-27T20:07:23.676Z,66.57
2022-09-27T20:12:25.081Z,66.48
2022-09-27T20:17:26.637Z,66.57
2022-09-27T20:22:27.998Z,66.23
2022-09-27T20:27:29.472Z,66.28
2022-09-27T20:32:31.882Z,66.26
2022-09-27T20:37:33.709Z,66.62
2022-09-27T20:42:35.382Z,66.52
2022-09-27T20:47:39.181Z,66.57
2022-09-27T20:52:41.082Z,66.83
2022-09-27T20:57:57.001Z,66.81
2022-09-27T21:02:59.177Z,66.76
2022-09-27T21:08:00.722Z,66.56
2022-09-27T21:13:02.033Z,66.68
2022-09-27T21:18:03.349Z,66.72
2022-09-27T21:23:04.628Z,66.89
2022-09-27T21:28:05.922Z,66.84
2022-09-27T21:33:07.334Z,66.79
2022-09-27T21:38:08.637Z,67.00
2022-09-27T21:43:10.167Z,66.97
2022-09-27T21:48:11.437Z,67.19
2022-09-27T21:53:12.708Z,67.76
2022-09-27T21:58:13.985Z,67.41
2022-09-27T22:03:15.411Z,67.24
2022-09-27T22:08:18.034Z,67.38
2022-09-27T22:13:19.299Z,67.47
2022-09-27T22:18:20.605Z,67.64
2022-09-27T22:23:21.999Z,67.82
2022-09-27T22:28:23.476Z,67.53
2022-09-27T22:33:24.845Z,67.71
2022-09-27T22:38:26.388Z,67.79
2022-09-27T22:43:30.955Z,67.77
2022-09-27T22:48:32.915Z,67.75
2022-09-27T22:53:34.546Z,67.65
2022-09-27T22:58:36.404Z,67.83
2022-09-27T23:03:37.758Z,67.92
2022-09-27T23:08:39.164Z,68.03
2022-09-27T23:13:41.615Z,68.12
2022-09-27T23:18:43.960Z,68.05
2022-09-27T23:23:45.914Z,68.16
2022-09-27T23:28:51.020Z,68.23
2022-09-27T23:33:52.425Z,67.97
2022-09-27T23:38:54.841Z,67.83
2022-09-27T23:43:56.509Z,67.98
2022-09-27T23:48:58.710Z,68.00
2022-09-27T23:54:00.276Z,67.91
2022-09-27T23:59:01.677Z,67.68
